Time;durP1;ratioP1;P1;durP2;ratioP2;P2;SDS_P1;SDS_P2;PMS_P1;PMS_P2;Temp;Humidity;BMP_temperature;BMP_pressure;BME280_temperature;BME280_humidity;BME280_pressure;Samples;Min_cycle;Max_cycle;Signal;HPM_P1;HPM_P2
2024/01/19 00:01:55;;;;;;;1999.90;999.90;;;-1.70;99.90;;;;;;4953497;28;20051;-82
2024/01/19 00:04:23;;;;;;;1999.90;999.90;;;-1.60;99.90;;;;;;4961230;28;20086;-81
2024/01/19 00:06:54;;;;;;;1999.90;999.90;;;-1.60;99.90;;;;;;4963600;28;20046;-81
2024/01/19 00:09:27;;;;;;;1999.90;999.90;;;-1.70;99.90;;;;;;4985283;28;20126;-81
2024/01/19 00:11:54;;;;;;;1999.90;999.90;;;-1.70;99.90;;;;;;4969539;28;20118;-81
2024/01/19 00:14:20;;;;;;;1999.90;999.90;;;-1.70;99.90;;;;;;4972803;28;20050;-81
2024/01/19 00:17:01;;;;;;;1999.90;999.90;;;-1.70;99.90;;;;;;4990071;28;20034;-82
2024/01/19 00:19:30;;;;;;;1999.90;999.90;;;-1.70;99.90;;;;;;4987182;28;20031;-81
2024/01/19 00:22:00;;;;;;;1999.90;999.90;;;-1.70;99.90;;;;;;4984894;28;20035;-82
2024/01/19 00:24:27;;;;;;;1999.90;999.90;;;-1.70;99.90;;;;;;4971126;28;20038;-81
2024/01/19 00:26:54;;;;;;;1999.90;999.90;;;-1.70;99.90;;;;;;4970726;28;20031;-81
2024/01/19 00:29:23;;;;;;;1999.90;999.90;;;-1.70;99.90;;;;;;4984573;28;20022;-81
2024/01/19 00:31:50;;;;;;;1999.90;999.90;;;-1.50;99.90;;;;;;4987488;28;20496;-81
2024/01/19 00:34:20;;;;;;;1999.90;999.90;;;-1.60;99.90;;;;;;4971098;28;20039;-81
2024/01/19 00:36:58;;;;;;;1999.90;999.90;;;-1.70;99.90;;;;;;4972168;28;20062;-81
2024/01/19 00:39:32;;;;;;;1999.90;999.90;;;-1.70;99.90;;;;;;4983178;28;20035;-81
2024/01/19 00:42:23;;;;;;;1999.90;999.90;;;-1.70;99.90;;;;;;4971951;28;20090;-81
2024/01/19 00:44:50;;;;;;;1999.90;999.90;;;-1.60;99.90;;;;;;4986001;28;20078;-81
2024/01/19 00:47:38;;;;;;;1999.90;999.90;;;-1.50;99.90;;;;;;4980549;28;20027;-81
2024/01/19 00:50:18;;;;;;;1999.90;999.90;;;-1.60;99.90;;;;;;4985917;28;20054;-81
2024/01/19 00:52:44;;;;;;;1999.90;999.90;;;-1.60;99.90;;;;;;4971653;28;20031;-81
2024/01/19 00:55:17;;;;;;;1999.90;999.90;;;-1.70;99.90;;;;;;4969983;28;20518;-81
2024/01/19 00:57:52;;;;;;;1999.90;999.90;;;-1.60;99.90;;;;;;4988848;28;20469;-81
2024/01/19 01:00:22;;;;;;;1999.90;999.90;;;-1.60;99.90;;;;;;4984481;28;20038;-81
2024/01/19 01:03:31;;;;;;;1999.90;999.90;;;-1.80;99.90;;;;;;4986160;28;20034;-81
2024/01/19 01:06:31;;;;;;;1999.90;999.90;;;-1.60;99.90;;;;;;4984938;28;20022;-81
2024/01/19 01:09:00;;;;;;;1999.90;999.90;;;-1.50;99.90;;;;;;4987247;28;20041;-82
2024/01/19 01:11:34;;;;;;;1999.90;999.90;;;-1.50;99.90;;;;;;4989384;28;20063;-81
2024/01/19 01:14:03;;;;;;;1999.90;999.90;;;-1.50;99.90;;;;;;4973652;28;20034;-81
2024/01/19 01:16:35;;;;;;;1999.90;999.90;;;-1.50;99.90;;;;;;4986050;28;20046;-81
2024/01/19 01:19:09;;;;;;;1999.90;999.90;;;-1.60;99.90;;;;;;4968068;28;20031;-81
2024/01/19 01:21:36;;;;;;;1999.90;999.90;;;-1.60;99.90;;;;;;4951585;28;20117;-81
2024/01/19 01:24:03;;;;;;;1999.90;999.90;;;-1.80;99.90;;;;;;4963822;28;20398;-81
2024/01/19 01:26:29;;;;;;;1999.90;999.90;;;-1.80;99.90;;;;;;4967039;28;20039;-81
2024/01/19 01:29:03;;;;;;;1999.90;999.90;;;-1.80;99.90;;;;;;4969696;28;20054;-81
2024/01/19 01:31:36;;;;;;;1999.90;999.90;;;-1.80;99.90;;;;;;4986753;28;20023;-81
2024/01/19 01:34:04;;;;;;;1999.90;999.90;;;-1.80;99.90;;;;;;4988516;28;20336;-81
2024/01/19 01:36:33;;;;;;;1999.90;999.90;;;-1.70;99.90;;;;;;4982899;28;20086;-81
2024/01/19 01:39:05;;;;;;;1999.90;999.90;;;-1.70;99.90;;;;;;4977738;28;20047;-81
2024/01/19 01:41:33;;;;;;;1999.90;999.90;;;-1.70;99.90;;;;;;4981519;28;20039;-81
2024/01/19 01:44:05;;;;;;;1999.90;999.90;;;-1.80;99.90;;;;;;4985429;28;20022;-81
2024/01/19 01:46:52;;;;;;;1999.90;999.90;;;-1.90;99.90;;;;;;4996209;28;20041;-82
2024/01/19 01:49:36;;;;;;;1999.90;999.90;;;-1.80;99.90;;;;;;4986450;28;20030;-81
2024/01/19 01:52:14;;;;;;;1999.90;999.90;;;-2.00;99.90;;;;;;4986325;28;20062;-81
2024/01/19 01:54:47;;;;;;;1999.90;999.90;;;-2.00;99.90;;;;;;4988036;28;20035;-81
2024/01/19 01:57:25;;;;;;;1999.90;999.90;;;-1.90;99.90;;;;;;4982580;28;20115;-81
2024/01/19 02:00:15;;;;;;;1999.90;999.90;;;-1.90;99.90;;;;;;4989183;28;20050;-81
2024/01/19 02:02:45;;;;;;;1999.90;999.90;;;-1.90;99.90;;;;;;4993068;28;20057;-81
2024/01/19 02:05:14;;;;;;;1999.90;999.90;;;-1.90;99.90;;;;;;4999893;28;20051;-83
2024/01/19 02:07:45;;;;;;;1999.90;999.90;;;-2.00;99.90;;;;;;4945627;28;20038;-81
2024/01/19 02:10:35;;;;;;;1999.90;999.90;;;-2.10;99.90;;;;;;4950846;28;20039;-80
2024/01/19 02:13:10;;;;;;;1999.90;999.90;;;-2.10;99.90;;;;;;4975125;28;20065;-81
2024/01/19 02:15:38;;;;;;;1999.90;999.90;;;-2.20;99.90;;;;;;4988428;28;20027;-80
2024/01/19 02:18:07;;;;;;;1999.90;999.90;;;-2.30;99.90;;;;;;4958599;28;20030;-80
2024/01/19 02:20:43;;;;;;;1999.90;999.90;;;-2.10;99.90;;;;;;4966869;28;20031;-80
2024/01/19 02:23:27;;;;;;;1999.90;999.90;;;-2.20;99.90;;;;;;4985353;28;20031;-79
2024/01/19 02:25:55;;;;;;;1999.90;999.90;;;-2.10;99.90;;;;;;4986169;28;20081;-80
2024/01/19 02:28:21;;;;;;;1999.90;999.90;;;-2.10;99.90;;;;;;4989014;28;20027;-80
2024/01/19 02:30:47;;;;;;;1999.90;999.90;;;-2.10;99.90;;;;;;4972177;28;20027;-81
2024/01/19 02:33:24;;;;;;;1999.90;999.90;;;-2.20;99.90;;;;;;4974288;28;20035;-79
2024/01/19 02:35:52;;;;;;;1999.90;999.90;;;-2.50;99.90;;;;;;4982441;28;20046;-81
2024/01/19 02:38:28;;;;;;;1999.90;999.90;;;-2.50;99.90;;;;;;4972098;28;20054;-81
2024/01/19 02:40:59;;;;;;;1999.90;999.90;;;-2.60;99.90;;;;;;4988297;28;20077;-81
2024/01/19 02:43:54;;;;;;;1999.90;999.90;;;-2.60;99.90;;;;;;4986909;28;20089;-82
2024/01/19 02:46:32;;;;;;;1999.90;999.90;;;-2.60;99.90;;;;;;4988230;28;20038;-82
2024/01/19 02:48:59;;;;;;;1999.90;999.90;;;-2.70;99.90;;;;;;4990440;28;20034;-81
2024/01/19 02:51:42;;;;;;;1999.90;999.90;;;-2.70;99.90;;;;;;4973146;28;20082;-81
2024/01/19 02:54:31;;;;;;;1999.90;999.90;;;-2.60;99.90;;;;;;4988966;28;20046;-81
2024/01/19 02:56:58;;;;;;;1999.90;999.90;;;-2.60;99.90;;;;;;4988786;28;20186;-81
2024/01/19 02:59:25;;;;;;;1999.90;999.90;;;-2.60;99.90;;;;;;4966043;28;20115;-81
2024/01/19 03:01:59;;;;;;;1999.90;999.90;;;-2.70;99.90;;;;;;4988082;28;20050;-81
2024/01/19 03:04:32;;;;;;;1999.90;999.90;;;-2.60;99.90;;;;;;4986960;28;20046;-82
2024/01/19 03:07:35;;;;;;;1999.90;999.90;;;-2.60;99.90;;;;;;4976385;28;20536;-81
2024/01/19 03:10:02;;;;;;;1999.90;999.90;;;-2.50;99.90;;;;;;4939089;28;20094;-81
2024/01/19 03:12:32;;;;;;;1999.90;999.90;;;-2.40;99.90;;;;;;4970024;28;20049;-81
2024/01/19 03:15:10;;;;;;;1999.90;999.90;;;-2.40;99.90;;;;;;4991755;28;20022;-82
2024/01/19 03:18:02;;;;;;;1999.90;999.90;;;-2.30;99.90;;;;;;4996345;28;20059;-81
2024/01/19 03:20:37;;;;;;;1999.90;999.90;;;-2.30;99.90;;;;;;4993709;28;20039;-81
2024/01/19 03:23:08;;;;;;;1999.90;999.90;;;-2.30;99.90;;;;;;4976033;28;20031;-83
2024/01/19 03:25:42;;;;;;;1999.90;999.90;;;-2.30;99.90;;;;;;4994589;28;20031;-81
2024/01/19 03:28:27;;;;;;;1999.90;999.90;;;-2.20;99.90;;;;;;4990690;28;20039;-82
2024/01/19 03:31:03;;;;;;;1999.90;999.90;;;-2.30;99.90;;;;;;4992390;28;20019;-81
2024/01/19 03:33:32;;;;;;;1999.90;999.90;;;-2.30;99.90;;;;;;4995390;28;20026;-81
2024/01/19 03:36:07;;;;;;;1999.90;999.90;;;-2.20;99.90;;;;;;4965002;28;20469;-82
2024/01/19 03:39:19;;;;;;;1999.90;999.90;;;-2.20;99.90;;;;;;4977778;28;20055;-81
2024/01/19 03:42:11;;;;;;;1999.90;999.90;;;-2.10;99.90;;;;;;4990366;28;20035;-81
2024/01/19 03:44:43;;;;;;;1999.90;999.90;;;-2.10;99.90;;;;;;4993692;28;20019;-82
2024/01/19 03:47:10;;;;;;;1999.90;999.90;;;-2.10;99.90;;;;;;4988334;28;20038;-82
2024/01/19 03:50:08;;;;;;;1999.90;999.90;;;-2.10;99.90;;;;;;4994787;28;20026;-81
2024/01/19 03:52:37;;;;;;;1999.90;999.90;;;-2.00;99.90;;;;;;4976735;28;20107;-82
2024/01/19 03:55:11;;;;;;;1999.90;999.90;;;-2.00;99.90;;;;;;4987745;28;20023;-81
2024/01/19 03:58:05;;;;;;;1999.90;999.90;;;-2.00;99.90;;;;;;4989334;28;20035;-81
2024/01/19 04:00:56;;;;;;;1999.90;999.90;;;-2.20;99.90;;;;;;4994332;28;20054;-81
2024/01/19 04:03:46;;;;;;;1999.90;999.90;;;-2.30;99.90;;;;;;4993932;28;20070;-81
2024/01/19 04:06:39;;;;;;;1999.90;999.90;;;-2.30;99.90;;;;;;4983781;28;20111;-82
2024/01/19 04:09:10;;;;;;;1999.90;999.90;;;-2.30;99.90;;;;;;4988458;28;20031;-81
2024/01/19 04:11:49;;;;;;;1999.90;999.90;;;-2.30;99.90;;;;;;4988496;28;20051;-82
2024/01/19 04:14:25;;;;;;;1999.90;999.90;;;-2.30;99.90;;;;;;4991588;28;20042;-81
2024/01/19 04:17:15;;;;;;;1999.90;999.90;;;-2.20;99.90;;;;;;4997815;28;20022;-82
2024/01/19 04:19:50;;;;;;;1999.90;999.90;;;-2.30;99.90;;;;;;4993883;28;20029;-82
2024/01/19 04:22:29;;;;;;;1999.90;999.90;;;-2.20;99.90;;;;;;4992302;28;20038;-82
2024/01/19 04:25:01;;;;;;;1999.90;999.90;;;-2.20;99.90;;;;;;4992198;28;20054;-82
2024/01/19 04:27:50;;;;;;;1999.90;999.90;;;-2.20;99.90;;;;;;4990939;28;20026;-82
2024/01/19 04:30:19;;;;;;;1999.90;999.90;;;-2.20;99.90;;;;;;4977887;28;20062;-82
2024/01/19 04:32:59;;;;;;;1999.90;999.90;;;-2.30;99.90;;;;;;4996139;28;20090;-82
2024/01/19 04:35:59;;;;;;;1999.90;999.90;;;-2.50;99.90;;;;;;4989210;28;20063;-81
2024/01/19 04:39:03;;;;;;;1999.90;999.90;;;-2.60;99.90;;;;;;4989080;28;20025;-82
2024/01/19 04:41:55;;;;;;;1999.90;999.90;;;-2.70;99.90;;;;;;4989321;28;20045;-82
2024/01/19 04:44:47;;;;;;;1999.90;999.90;;;-2.70;99.90;;;;;;4988589;28;20082;-81
2024/01/19 04:47:30;;;;;;;1999.90;999.90;;;-3.00;99.90;;;;;;4990479;28;20015;-82
2024/01/19 04:50:00;;;;;;;1999.90;999.90;;;-3.10;99.90;;;;;;4995554;28;20623;-82
2024/01/19 04:52:38;;;;;;;1999.90;999.90;;;-3.10;99.90;;;;;;4972276;28;20036;-82
2024/01/19 04:55:30;;;;;;;1999.90;999.90;;;-3.20;99.90;;;;;;4996686;28;20021;-82
2024/01/19 04:58:00;;;;;;;1999.90;999.90;;;-3.50;99.90;;;;;;4988659;28;20033;-82
2024/01/19 05:01:13;;;;;;;1999.90;999.90;;;-3.60;99.90;;;;;;4992937;28;20029;-82
2024/01/19 05:05:00;;;;;;;1999.90;999.90;;;-3.50;99.90;;;;;;4993908;28;20102;-82
2024/01/19 05:08:05;;;;;;;1999.90;999.90;;;-3.60;99.90;;;;;;4998463;28;20050;-82
2024/01/19 05:11:27;;;;;;;1999.90;999.90;;;-3.70;99.90;;;;;;4996729;28;20058;-82
2024/01/19 05:14:09;;;;;;;1999.90;999.90;;;-3.60;99.90;;;;;;4974800;29;20027;-82
2024/01/19 05:17:06;;;;;;;1999.90;999.90;;;-3.60;99.90;;;;;;4997704;28;20030;-81
2024/01/19 05:20:04;;;;;;;1999.90;999.90;;;-3.90;99.90;;;;;;5000719;28;20039;-82
2024/01/19 05:23:23;;;;;;;1999.90;999.90;;;-3.90;99.90;;;;;;4992357;28;20054;-80
2024/01/19 05:26:26;;;;;;;1999.90;999.90;;;-3.70;99.90;;;;;;4998435;28;20032;-81
2024/01/19 05:29:20;;;;;;;1999.90;999.90;;;-3.60;99.90;;;;;;4995951;28;20011;-86
2024/01/19 05:32:19;;;;;;;1999.90;999.90;;;-3.40;99.90;;;;;;4990692;28;20062;-82
2024/01/19 05:35:26;;;;;;;1999.90;999.90;;;-3.20;99.90;;;;;;4948817;28;20069;-82
2024/01/19 05:38:10;;;;;;;1999.90;999.90;;;-3.10;99.90;;;;;;4912317;29;20043;-82
2024/01/19 05:41:14;;;;;;;1999.90;999.90;;;-3.00;99.90;;;;;;4978577;28;20046;-82
2024/01/19 05:44:05;;;;;;;1999.90;999.90;;;-3.00;99.90;;;;;;4991082;28;20051;-82
2024/01/19 05:46:31;;;;;;;1999.90;999.90;;;-2.90;99.90;;;;;;5004276;23;20068;-75
2024/01/19 05:48:57;;;;;;;1999.90;999.90;;;-3.00;99.90;;;;;;5005493;28;20049;-74
2024/01/19 05:51:22;;;;;;;1999.90;999.90;;;-3.10;99.90;;;;;;4992706;28;20828;-75
2024/01/19 05:53:48;;;;;;;1999.90;999.90;;;-3.10;99.90;;;;;;5006108;28;20040;-74
2024/01/19 05:56:14;;;;;;;1999.90;999.90;;;-3.00;99.90;;;;;;4989646;28;20086;-74
2024/01/19 05:58:40;;;;;;;1999.90;999.90;;;-3.00;99.90;;;;;;5005349;28;20566;-75
2024/01/19 06:01:05;;;;;;;1999.90;999.90;;;-2.90;99.90;;;;;;5010039;28;20030;-75
2024/01/19 06:03:35;;;;;;;1999.90;999.90;;;-3.00;99.90;;;;;;4991387;28;20549;-75
2024/01/19 06:06:01;;;;;;;1999.90;999.90;;;-3.00;99.90;;;;;;5007141;28;20733;-74
2024/01/19 06:08:28;;;;;;;1999.90;999.90;;;-3.10;99.90;;;;;;4993219;28;20459;-75
2024/01/19 06:10:54;;;;;;;1999.90;999.90;;;-3.30;99.90;;;;;;4989490;28;20156;-75
2024/01/19 06:13:20;;;;;;;1999.90;999.90;;;-3.20;99.90;;;;;;5003293;28;20615;-75
2024/01/19 06:15:46;;;;;;;1999.90;999.90;;;-3.20;99.90;;;;;;4970154;28;20551;-75
2024/01/19 06:18:11;;;;;;;1999.90;999.90;;;-3.10;99.90;;;;;;5003653;28;20038;-72
2024/01/19 06:20:43;;;;;;;1999.90;999.90;;;-3.10;99.90;;;;;;4983942;28;20054;-75
2024/01/19 06:23:10;;;;;;;1999.90;999.90;;;-3.20;99.90;;;;;;4980468;28;20181;-74
2024/01/19 06:25:37;;;;;;;1999.90;999.90;;;-3.20;99.90;;;;;;4982974;28;20121;-75
2024/01/19 06:28:04;;;;;;;1999.90;999.90;;;-3.20;99.90;;;;;;5003804;28;20037;-78
2024/01/19 06:30:30;;;;;;;1999.90;999.90;;;-3.30;99.90;;;;;;5007113;28;20088;-74
2024/01/19 06:32:56;;;;;;;1999.90;999.90;;;-3.30;99.90;;;;;;5003391;28;20042;-74
2024/01/19 06:35:21;;;;;;;1999.90;999.90;;;-3.30;99.90;;;;;;5006436;28;20101;-74
2024/01/19 06:37:47;;;;;;;1999.90;999.90;;;-3.30;99.90;;;;;;4987408;28;20392;-75
2024/01/19 06:40:14;;;;;;;1999.90;999.90;;;-3.30;99.90;;;;;;4987819;28;20038;-73
2024/01/19 06:42:41;;;;;;;1999.90;999.90;;;-3.30;99.90;;;;;;5006192;28;20029;-73
2024/01/19 06:45:07;;;;;;;1999.90;999.90;;;-3.20;99.90;;;;;;4999683;28;20057;-74
2024/01/19 06:47:33;;;;;;;1999.90;999.90;;;-3.20;99.90;;;;;;4987690;28;20072;-74
2024/01/19 06:49:58;;;;;;;1999.90;999.90;;;-3.20;99.90;;;;;;4973806;28;20053;-73
2024/01/19 06:52:24;;;;;;;1999.90;999.90;;;-3.20;99.90;;;;;;5002446;28;20034;-74
2024/01/19 06:54:50;;;;;;;1999.90;999.90;;;-3.10;99.90;;;;;;4988803;28;20037;-74
2024/01/19 06:57:16;;;;;;;1999.90;999.90;;;-3.10;99.90;;;;;;4988562;28;20037;-74
2024/01/19 06:59:41;;;;;;;1999.90;999.90;;;-3.00;99.90;;;;;;5006317;28;20460;-74
2024/01/19 07:02:07;;;;;;;1999.90;999.90;;;-2.90;99.90;;;;;;4991390;28;20033;-74
2024/01/19 07:04:33;;;;;;;1999.90;999.90;;;-2.90;99.90;;;;;;4989754;28;20129;-74
2024/01/19 07:06:59;;;;;;;1999.90;999.90;;;-2.90;99.90;;;;;;5011094;28;20025;-75
2024/01/19 07:09:26;;;;;;;1999.90;999.90;;;-2.80;99.90;;;;;;5003252;28;20030;-74
2024/01/19 07:11:53;;;;;;;1999.90;999.90;;;-2.80;99.90;;;;;;4988306;28;20038;-75
2024/01/19 07:14:19;;;;;;;1999.90;999.90;;;-2.80;99.90;;;;;;5004787;28;20018;-73
2024/01/19 07:16:44;;;;;;;1999.90;999.90;;;-2.80;99.90;;;;;;5008076;28;20038;-74
2024/01/19 07:19:10;;;;;;;1999.90;999.90;;;-2.90;99.90;;;;;;5004037;28;20033;-74
2024/01/19 07:21:40;;;;;;;1999.90;999.90;;;-2.80;99.90;;;;;;5002916;28;20113;-73
2024/01/19 07:24:10;;;;;;;1999.90;999.90;;;-2.80;99.90;;;;;;4985894;28;20068;-74
2024/01/19 07:26:37;;;;;;;1999.90;999.90;;;-2.70;99.90;;;;;;4984403;28;20057;-74
2024/01/19 07:29:07;;;;;;;1999.90;999.90;;;-2.50;99.90;;;;;;5001980;28;20034;-74
2024/01/19 07:31:33;;;;;;;1999.90;999.90;;;-2.60;99.90;;;;;;5008937;28;20030;-74
2024/01/19 07:33:59;;;;;;;1999.90;999.90;;;-2.60;99.90;;;;;;4999405;28;20026;-75
2024/01/19 07:36:26;;;;;;;1999.90;999.90;;;-2.50;99.90;;;;;;4987513;28;20784;-75
2024/01/19 07:38:52;;;;;;;1999.90;999.90;;;-2.40;99.90;;;;;;5000817;28;20030;-76
2024/01/19 07:41:17;;;;;;;1999.90;999.90;;;-2.30;99.90;;;;;;4989265;28;20156;-75
2024/01/19 07:43:43;;;;;;;1999.90;999.90;;;-2.30;99.90;;;;;;4999834;28;20046;-74
2024/01/19 07:46:11;;;;;;;1999.90;999.90;;;-2.20;99.90;;;;;;5004123;28;20480;-74
2024/01/19 07:48:37;;;;;;;1999.90;999.90;;;-2.20;99.90;;;;;;5003604;28;20869;-74
2024/01/19 07:51:03;;;;;;;1999.90;999.90;;;-2.30;99.90;;;;;;4973212;28;20069;-74
2024/01/19 07:53:29;;;;;;;1999.90;999.90;;;-2.50;99.90;;;;;;4973388;28;20070;-75
2024/01/19 07:55:55;;;;;;;1999.90;999.90;;;-2.50;99.90;;;;;;4981512;28;20306;-74
2024/01/19 07:58:21;;;;;;;1999.90;999.90;;;-2.40;99.90;;;;;;5005404;28;20108;-72
2024/01/19 08:00:47;;;;;;;1999.90;999.90;;;-2.30;99.90;;;;;;5004000;28;20295;-71
2024/01/19 08:03:13;;;;;;;1999.90;999.90;;;-2.20;99.90;;;;;;5003104;28;20032;-72
2024/01/19 08:05:39;;;;;;;1999.90;999.90;;;-2.00;99.90;;;;;;4991806;28;20026;-72
2024/01/19 08:08:05;;;;;;;1999.90;999.90;;;-1.90;99.90;;;;;;5006262;28;20757;-72
2024/01/19 08:10:32;;;;;;;1999.90;999.90;;;-1.80;99.90;;;;;;4969604;28;20038;-72
2024/01/19 08:13:00;;;;;;;1999.90;999.90;;;-1.70;99.90;;;;;;5007497;28;20077;-72
2024/01/19 08:15:26;;;;;;;1999.90;999.90;;;-1.60;99.90;;;;;;5004723;28;20044;-72
2024/01/19 08:17:52;;;;;;;1999.90;999.90;;;-1.50;99.90;;;;;;5008177;28;20653;-72
2024/01/19 08:20:17;;;;;;;1999.90;999.90;;;-1.40;99.90;;;;;;5006567;28;20633;-72
2024/01/19 08:22:43;;;;;;;1999.90;999.90;;;-1.50;99.90;;;;;;4991347;28;20126;-74
2024/01/19 08:25:10;;;;;;;1999.90;999.90;;;-1.60;99.90;;;;;;4983962;28;20034;-75
2024/01/19 08:27:39;;;;;;;1999.90;999.90;;;-1.70;99.90;;;;;;4985637;28;20140;-74
2024/01/19 08:30:06;;;;;;;1999.90;999.90;;;-1.80;99.90;;;;;;4988058;28;20088;-75
2024/01/19 08:32:32;;;;;;;1999.90;999.90;;;-1.90;99.90;;;;;;4975659;28;20383;-74
2024/01/19 08:34:57;;;;;;;1999.90;999.90;;;-1.90;99.90;;;;;;4975693;28;20117;-75
2024/01/19 08:37:23;;;;;;;1999.90;999.90;;;-2.00;99.90;;;;;;4999164;28;20153;-74
2024/01/19 08:39:52;;;;;;;1999.90;999.90;;;-2.00;99.90;;;;;;4978276;28;20124;-77
2024/01/19 08:42:18;;;;;;;1999.90;999.90;;;-2.10;99.90;;;;;;4995543;28;20026;-74
2024/01/19 08:44:46;;;;;;;1999.90;999.90;;;-2.00;99.90;;;;;;4994529;28;20048;-75
2024/01/19 08:47:12;;;;;;;1999.90;999.90;;;-1.90;99.90;;;;;;4995957;28;20057;-76
2024/01/19 08:49:38;;;;;;;1999.90;999.90;;;-1.80;99.90;;;;;;5003287;28;20033;-76
2024/01/19 08:52:04;;;;;;;1999.90;999.90;;;-1.70;99.90;;;;;;4988860;28;21160;-75
2024/01/19 08:54:29;;;;;;;1999.90;999.90;;;-1.70;99.90;;;;;;5005133;28;20523;-74
2024/01/19 08:56:55;;;;;;;1999.90;999.90;;;-1.70;99.90;;;;;;4986147;28;20562;-75
2024/01/19 08:59:22;;;;;;;1999.90;999.90;;;-1.70;99.90;;;;;;4969973;28;20034;-75
2024/01/19 09:01:53;;;;;;;1999.90;999.90;;;-1.80;99.90;;;;;;4983004;28;20570;-75
2024/01/19 09:04:19;;;;;;;1999.90;999.90;;;-1.90;99.90;;;;;;5004532;28;20021;-75
2024/01/19 09:06:44;;;;;;;1999.90;999.90;;;-2.10;99.90;;;;;;4987817;28;20044;-75
2024/01/19 09:09:10;;;;;;;1999.90;999.90;;;-2.20;99.90;;;;;;4984974;28;20532;-74
2024/01/19 09:11:36;;;;;;;1999.90;999.90;;;-2.20;99.90;;;;;;5002423;28;20508;-74
2024/01/19 09:14:02;;;;;;;1999.90;999.90;;;-2.20;99.90;;;;;;5002088;28;20217;-75
2024/01/19 09:16:28;;;;;;;1999.90;999.90;;;-2.30;99.90;;;;;;4988917;28;20169;-75
2024/01/19 09:18:53;;;;;;;1999.90;999.90;;;-2.30;99.90;;;;;;4969011;28;20034;-75
2024/01/19 09:21:19;;;;;;;1999.90;999.90;;;-2.30;99.90;;;;;;5003048;28;20026;-76
2024/01/19 09:23:45;;;;;;;1999.90;999.90;;;-2.30;99.90;;;;;;4989636;28;20111;-75
2024/01/19 09:26:20;;;;;;;1999.90;999.90;;;-2.30;99.90;;;;;;5004461;28;20026;-76
2024/01/19 09:28:47;;;;;;;1999.90;999.90;;;-2.30;99.90;;;;;;5009448;28;20057;-76
2024/01/19 09:31:13;;;;;;;1999.90;999.90;;;-2.30;99.90;;;;;;4988541;28;20026;-75
2024/01/19 09:33:39;;;;;;;1999.90;999.90;;;-2.20;99.90;;;;;;5005344;28;20049;-75
2024/01/19 09:36:06;;;;;;;1999.90;999.90;;;-2.20;99.90;;;;;;5001704;28;20033;-75
2024/01/19 09:38:35;;;;;;;1999.90;999.90;;;-2.20;99.90;;;;;;4989150;28;20034;-74
2024/01/19 09:41:36;;;;;;;1999.90;999.90;;;-1.90;99.90;;;;;;5007914;28;20058;-74
2024/01/19 09:44:05;;;;;;;1999.90;999.90;;;-1.70;99.90;;;;;;4959687;28;20084;-74
2024/01/19 09:46:34;;;;;;;1999.90;999.90;;;-1.70;99.90;;;;;;5006331;28;20041;-75
2024/01/19 09:49:21;;;;;;;1999.90;999.90;;;-1.60;99.90;;;;;;4994053;28;20042;-75
2024/01/19 09:52:25;;;;;;;1999.90;999.90;;;-1.40;99.90;;;;;;4988351;28;20034;-76
2024/01/19 09:54:51;;;;;;;1999.90;999.90;;;-1.40;99.90;;;;;;4981873;28;20144;-75
2024/01/19 09:57:16;;;;;;;1999.90;999.90;;;-1.10;99.90;;;;;;5010014;28;20025;-76
2024/01/19 09:59:43;;;;;;;1999.90;999.90;;;-0.90;99.90;;;;;;4989435;28;20026;-75
2024/01/19 10:02:11;;;;;;;1999.90;999.90;;;-0.70;99.90;;;;;;4986629;28;20064;-76
2024/01/19 10:04:37;;;;;;;1999.90;999.90;;;-0.70;99.90;;;;;;5003230;28;20084;-77
2024/01/19 10:07:03;;;;;;;1999.90;999.90;;;-0.30;99.90;;;;;;4975047;28;20831;-75
2024/01/19 10:09:30;;;;;;;1999.90;999.90;;;-0.30;99.90;;;;;;5008381;28;20118;-75
2024/01/19 10:11:55;;;;;;;1999.90;999.90;;;-0.20;99.90;;;;;;4988072;28;20033;-76
2024/01/19 10:14:23;;;;;;;1999.90;999.90;;;-0.30;99.90;;;;;;4990244;28;20748;-76
2024/01/19 10:16:50;;;;;;;1999.90;999.90;;;-0.20;99.90;;;;;;5008780;28;20057;-77
2024/01/19 10:19:16;;;;;;;1999.90;999.90;;;-0.30;99.90;;;;;;4987484;28;20057;-78
2024/01/19 10:21:43;;;;;;;1999.90;999.90;;;-0.30;99.90;;;;;;4972928;28;20033;-75
2024/01/19 10:24:18;;;;;;;1999.90;999.90;;;-0.20;99.90;;;;;;4987621;28;20022;-76
2024/01/19 10:26:55;;;;;;;1999.90;999.90;;;-0.10;99.90;;;;;;4989682;28;20400;-75
2024/01/19 10:29:22;;;;;;;1999.90;999.90;;;0.00;99.90;;;;;;5004497;28;20185;-75
2024/01/19 10:31:52;;;;;;;1999.90;999.90;;;0.00;99.90;;;;;;5006729;28;20140;-75
2024/01/19 10:34:21;;;;;;;1999.90;999.90;;;-0.50;99.90;;;;;;4988883;28;20096;-75
2024/01/19 10:36:48;;;;;;;1999.90;999.90;;;-0.70;99.90;;;;;;4979953;28;20041;-76
2024/01/19 10:39:30;;;;;;;1999.90;999.90;;;-0.80;99.90;;;;;;5000020;28;20110;-75
2024/01/19 10:42:07;;;;;;;1999.90;999.90;;;-1.00;99.90;;;;;;5009389;28;20037;-76
2024/01/19 10:44:34;;;;;;;1999.90;999.90;;;-1.20;99.90;;;;;;5002258;28;20379;-76
2024/01/19 10:47:00;;;;;;;1999.90;999.90;;;-1.10;99.90;;;;;;4985666;28;20440;-77
2024/01/19 10:49:26;;;;;;;1999.90;999.90;;;-1.00;99.90;;;;;;4998866;28;20101;-76
2024/01/19 10:51:54;;;;;;;1999.90;999.90;;;-0.90;99.90;;;;;;4987568;28;20662;-76
2024/01/19 10:54:25;;;;;;;1999.90;999.90;;;-1.00;99.90;;;;;;5000474;28;20033;-77
2024/01/19 10:57:01;;;;;;;1999.90;999.90;;;-1.00;99.90;;;;;;5005156;28;20041;-75
2024/01/19 10:59:27;;;;;;;1999.90;999.90;;;-0.90;99.90;;;;;;5015427;28;20041;-77
2024/01/19 11:02:01;;;;;;;1999.90;999.90;;;-0.70;99.90;;;;;;4988020;28;20072;-78
2024/01/19 11:04:28;;;;;;;1999.90;999.90;;;-0.50;99.90;;;;;;5013567;28;20038;-76
2024/01/19 11:06:54;;;;;;;1999.90;999.90;;;-0.20;99.90;;;;;;5008124;28;20026;-77
2024/01/19 11:09:20;;;;;;;1999.90;999.90;;;0.10;99.90;;;;;;4993719;28;20018;-77
2024/01/19 11:11:57;;;;;;;1999.90;999.90;;;0.30;99.90;;;;;;4990154;28;20071;-78
2024/01/19 11:14:27;;;;;;;1999.90;999.90;;;0.30;99.90;;;;;;4984812;28;20066;-76
2024/01/19 11:16:56;;;;;;;1999.90;999.90;;;0.30;99.90;;;;;;5005063;28;20037;-77
2024/01/19 11:19:23;;;;;;;1999.90;999.90;;;0.30;99.90;;;;;;4984470;28;20519;-77
2024/01/19 11:21:48;;;;;;;1999.90;999.90;;;0.30;99.90;;;;;;5006420;28;20034;-76
2024/01/19 11:24:16;;;;;;;1999.90;999.90;;;0.30;99.90;;;;;;4976144;28;20728;-77
2024/01/19 11:26:45;;;;;;;1999.90;999.90;;;0.30;99.90;;;;;;4988279;28;20097;-77
2024/01/19 11:29:31;;;;;;;1999.90;999.90;;;0.30;99.90;;;;;;4990996;28;20048;-76
2024/01/19 11:31:58;;;;;;;1999.90;999.90;;;0.10;99.90;;;;;;4987213;28;20038;-77
2024/01/19 11:34:41;;;;;;;1999.90;999.90;;;0.20;99.90;;;;;;5003486;28;20096;-76
2024/01/19 11:37:08;;;;;;;1999.90;999.90;;;0.20;99.90;;;;;;4974475;28;20026;-76
2024/01/19 11:39:41;;;;;;;1999.90;999.90;;;0.30;99.90;;;;;;5012747;28;20406;-77
2024/01/19 11:42:08;;;;;;;1999.90;999.90;;;0.30;99.90;;;;;;5009054;28;20113;-77
2024/01/19 11:44:45;;;;;;;1999.90;999.90;;;0.30;99.90;;;;;;4982592;28;20030;-78
2024/01/19 11:47:36;;;;;;;1999.90;999.90;;;0.30;99.90;;;;;;5002866;28;20701;-79
2024/01/19 11:50:03;;;;;;;1999.90;999.90;;;0.30;99.90;;;;;;5001235;28;20054;-79
2024/01/19 11:52:30;;;;;;;1999.90;999.90;;;0.40;99.90;;;;;;5014986;28;20053;-79
2024/01/19 11:54:56;;;;;;;1999.90;999.90;;;0.40;99.90;;;;;;4998109;28;20033;-80
2024/01/19 11:57:24;;;;;;;1999.90;999.90;;;0.40;99.90;;;;;;5000746;28;20120;-76
2024/01/19 11:59:51;;;;;;;1999.90;999.90;;;0.40;99.90;;;;;;4999642;28;20087;-75
2024/01/19 12:02:20;;;;;;;1999.90;999.90;;;0.40;99.90;;;;;;5008383;28;20148;-74
2024/01/19 12:04:47;;;;;;;1999.90;999.90;;;0.40;99.90;;;;;;5006512;28;20029;-76
2024/01/19 12:07:22;;;;;;;1999.90;999.90;;;0.40;99.90;;;;;;5009955;28;20365;-78
2024/01/19 12:10:06;;;;;;;1999.90;999.90;;;0.50;99.90;;;;;;4979214;28;20033;-76
2024/01/19 12:12:33;;;;;;;1999.90;999.90;;;0.40;99.90;;;;;;5012527;28;20696;-75
2024/01/19 12:15:00;;;;;;;1999.90;999.90;;;0.40;99.90;;;;;;5010976;28;20131;-75
2024/01/19 12:17:26;;;;;;;1999.90;999.90;;;0.50;99.90;;;;;;5006073;28;20034;-75
2024/01/19 12:19:52;;;;;;;1999.90;999.90;;;0.40;99.90;;;;;;4995638;28;20084;-75
2024/01/19 12:22:19;;;;;;;1999.90;999.90;;;0.40;99.90;;;;;;4994420;28;20037;-73
2024/01/19 12:24:45;;;;;;;1999.90;999.90;;;0.30;99.90;;;;;;4993115;28;20041;-74
2024/01/19 12:27:23;;;;;;;1999.90;999.90;;;0.30;99.90;;;;;;4994673;28;20495;-74
2024/01/19 12:30:13;;;;;;;1999.90;999.90;;;0.20;99.90;;;;;;5011041;28;20101;-73
2024/01/19 12:32:40;;;;;;;1999.90;999.90;;;0.30;99.90;;;;;;5012496;28;20037;-74